createdAt,value
2023-04-02T00:00:09.019Z,89.20
2023-04-02T00:02:35.492Z,89.00
2023-04-02T00:05:01.957Z,89.00
2023-04-02T00:07:28.400Z,89.10
2023-04-02T00:09:54.825Z,89.10
2023-04-02T00:12:21.223Z,88.90
2023-04-02T00:14:47.644Z,88.80
2023-04-02T00:17:14.102Z,89.10
2023-04-02T00:19:40.494Z,89.10
2023-04-02T00:22:06.848Z,88.60
2023-04-02T00:24:33.230Z,88.70
2023-04-02T00:26:59.682Z,88.60
2023-04-02T00:29:26.074Z,88.60
2023-04-02T00:31:52.473Z,88.50
2023-04-02T00:34:18.947Z,88.30
2023-04-02T00:36:45.371Z,88.40
2023-04-02T00:39:11.820Z,88.40
2023-04-02T00:41:38.238Z,88.40
2023-04-02T00:44:04.698Z,88.10
2023-04-02T00:46:31.184Z,88.00
2023-04-02T00:48:57.811Z,88.10
2023-04-02T00:51:24.269Z,88.00
2023-04-02T00:53:50.704Z,88.10
2023-04-02T00:56:17.124Z,88.10
2023-04-02T00:58:43.525Z,88.10
2023-04-02T01:01:09.939Z,88.00
2023-04-02T01:03:37.297Z,88.00
2023-04-02T01:06:04.298Z,87.80
2023-04-02T01:08:30.704Z,87.70
2023-04-02T01:10:57.112Z,87.60
2023-04-02T01:13:23.520Z,87.50
2023-04-02T01:15:49.983Z,87.40
2023-04-02T01:18:16.438Z,87.50
2023-04-02T01:20:42.891Z,87.50
2023-04-02T01:23:09.264Z,87.40
2023-04-02T01:25:35.969Z,87.30
2023-04-02T01:28:02.525Z,87.40
2023-04-02T01:30:29.134Z,87.30
2023-04-02T01:32:55.622Z,87.20
2023-04-02T01:35:22.115Z,87.40
2023-04-02T01:37:48.561Z,87.50
2023-04-02T01:40:14.983Z,87.70
2023-04-02T01:42:41.456Z,87.80
2023-04-02T01:45:07.925Z,87.90
2023-04-02T01:47:34.362Z,87.80
2023-04-02T01:50:00.825Z,87.50
2023-04-02T01:52:27.298Z,87.60
2023-04-02T01:54:53.702Z,87.60
2023-04-02T01:57:20.208Z,87.40
2023-04-02T01:59:46.641Z,87.40
2023-04-02T02:02:13.171Z,87.50
2023-04-02T02:04:39.603Z,87.60
2023-04-02T02:07:06.064Z,87.50
2023-04-02T02:09:32.447Z,87.40
2023-04-02T02:11:58.839Z,87.40
2023-04-02T02:14:25.268Z,87.30
2023-04-02T02:16:51.684Z,87.20
2023-04-02T02:19:18.096Z,87.10
2023-04-02T02:21:44.536Z,87.00
2023-04-02T02:24:10.978Z,86.90
2023-04-02T02:26:37.364Z,86.80
2023-04-02T02:29:03.789Z,86.90
2023-04-02T02:31:30.235Z,86.60
2023-04-02T02:33:56.725Z,86.40
2023-04-02T02:36:23.173Z,86.40
2023-04-02T02:38:49.583Z,86.40
2023-04-02T02:41:15.989Z,86.20
2023-04-02T02:43:42.364Z,86.10
2023-04-02T02:46:08.799Z,86.00
2023-04-02T02:48:35.319Z,86.10
2023-04-02T02:51:01.707Z,85.90
2023-04-02T02:53:28.167Z,85.90
2023-04-02T02:55:54.562Z,85.90
2023-04-02T02:58:21.006Z,85.70
2023-04-02T03:00:47.435Z,85.50
2023-04-02T03:03:13.877Z,85.40
2023-04-02T03:05:40.378Z,85.60
2023-04-02T03:08:06.832Z,85.50
2023-04-02T03:10:33.240Z,85.30
2023-04-02T03:12:59.657Z,85.20
2023-04-02T03:15:26.143Z,85.20
2023-04-02T03:17:52.710Z,85.10
2023-04-02T03:20:19.142Z,84.90
2023-04-02T03:22:45.588Z,84.80
2023-04-02T03:25:11.976Z,84.50
2023-04-02T03:27:38.413Z,84.40
2023-04-02T03:30:04.896Z,84.30
2023-04-02T03:32:31.418Z,83.90
2023-04-02T03:34:57.914Z,84.00
2023-04-02T03:37:24.429Z,84.10
2023-04-02T03:39:50.841Z,84.10
2023-04-02T03:42:17.286Z,83.90
2023-04-02T03:44:43.718Z,83.40
2023-04-02T03:47:10.100Z,83.30
2023-04-02T03:49:36.536Z,82.90
2023-04-02T03:52:02.983Z,82.10
2023-04-02T03:54:29.377Z,82.30
2023-04-02T03:56:55.865Z,82.50
2023-04-02T03:59:22.300Z,82.30
2023-04-02T04:01:48.791Z,82.40
2023-04-02T04:04:15.371Z,82.50
2023-04-02T04:06:41.912Z,82.40
2023-04-02T04:09:08.300Z,82.60
2023-04-02T04:11:34.756Z,82.30
2023-04-02T04:14:01.130Z,82.20
2023-04-02T04:16:27.556Z,81.90
2023-04-02T04:18:54.597Z,82.10
2023-04-02T04:21:21.025Z,82.10
2023-04-02T04:23:47.457Z,81.80
2023-04-02T04:26:13.903Z,81.50
2023-04-02T04:28:40.284Z,81.60
2023-04-02T04:31:06.713Z,81.80
2023-04-02T04:33:33.163Z,81.70
2023-04-02T04:35:59.632Z,82.10
2023-04-02T04:38:26.090Z,80.80
2023-04-02T04:40:52.464Z,80.90
2023-04-02T04:43:18.868Z,81.20
2023-04-02T04:45:45.278Z,81.20
2023-04-02T04:48:11.682Z,81.00
2023-04-02T04:50:38.095Z,81.00
2023-04-02T04:53:04.499Z,81.20
2023-04-02T04:55:30.910Z,81.10
2023-04-02T04:57:57.316Z,80.90
2023-04-02T05:00:23.811Z,81.00
2023-04-02T05:02:50.261Z,81.30
2023-04-02T05:05:16.765Z,81.10
2023-04-02T05:07:43.164Z,81.30
2023-04-02T05:10:09.622Z,81.30
2023-04-02T05:12:36.021Z,81.40
2023-04-02T05:15:02.389Z,81.20
2023-04-02T05:17:28.821Z,81.30
2023-04-02T05:19:55.346Z,80.90
2023-04-02T05:22:21.756Z,81.10
2023-04-02T05:24:48.163Z,81.00
2023-04-02T05:27:14.592Z,81.10
2023-04-02T05:29:41.026Z,81.10
2023-04-02T05:32:07.423Z,81.00
2023-04-02T05:34:33.803Z,81.10
2023-04-02T05:37:00.232Z,81.30
2023-04-02T05:39:26.627Z,81.10
2023-04-02T05:41:53.040Z,81.00
2023-04-02T05:44:19.439Z,81.00
2023-04-02T05:46:45.973Z,81.10
2023-04-02T05:49:12.400Z,81.10
2023-04-02T05:51:38.792Z,80.90
2023-04-02T05:54:05.217Z,80.90
2023-04-02T05:56:31.632Z,80.60
2023-04-02T05:58:58.231Z,80.80
2023-04-02T06:01:24.706Z,80.90
2023-04-02T06:03:51.315Z,80.70
2023-04-02T06:06:17.783Z,80.70
2023-04-02T06:08:44.210Z,80.80
2023-04-02T06:11:10.642Z,80.50
2023-04-02T06:13:37.026Z,80.60
2023-04-02T06:16:03.463Z,80.70
2023-04-02T06:18:29.892Z,80.70
2023-04-02T06:20:56.310Z,80.70
2023-04-02T06:23:22.746Z,80.90
2023-04-02T06:25:49.229Z,80.80
2023-04-02T06:28:15.658Z,80.60
2023-04-02T06:30:42.106Z,80.80
2023-04-02T06:33:08.599Z,80.60
2023-04-02T06:35:35.262Z,80.60
2023-04-02T06:38:01.960Z,80.90
2023-04-02T06:40:28.454Z,80.70
2023-04-02T06:42:54.860Z,80.90
2023-04-02T06:45:21.311Z,80.80
2023-04-02T06:47:47.857Z,80.90
2023-04-02T06:50:14.297Z,80.90
2023-04-02T06:52:40.753Z,80.90
2023-04-02T06:55:07.186Z,80.50
2023-04-02T06:57:33.689Z,80.50
2023-04-02T07:00:00.198Z,80.60
2023-04-02T07:02:26.627Z,80.70
2023-04-02T07:04:53.189Z,80.50
2023-04-02T07:07:19.678Z,80.40
2023-04-02T07:09:46.153Z,80.60
2023-04-02T07:12:12.646Z,80.50
2023-04-02T07:14:39.081Z,80.40
2023-04-02T07:17:05.530Z,80.30
2023-04-02T07:19:32.005Z,80.10
2023-04-02T07:21:58.556Z,80.10
2023-04-02T07:24:25.040Z,79.90
2023-04-02T07:26:51.445Z,80.00
2023-04-02T07:29:17.887Z,79.70
2023-04-02T07:31:44.406Z,79.90
2023-04-02T07:34:10.914Z,79.60
2023-04-02T07:36:37.360Z,79.40
2023-04-02T07:39:03.874Z,79.70
2023-04-02T07:41:30.289Z,79.70
2023-04-02T07:43:56.696Z,79.30
2023-04-02T07:46:23.143Z,79.30
2023-04-02T07:48:49.614Z,79.20
2023-04-02T07:51:16.060Z,79.00
2023-04-02T07:53:42.508Z,78.90
2023-04-02T07:56:09.082Z,79.00
2023-04-02T07:58:35.488Z,78.80
2023-04-02T08:01:02.177Z,78.90
2023-04-02T08:03:29.064Z,78.40
2023-04-02T08:05:55.549Z,78.40
2023-04-02T08:08:21.985Z,77.90
2023-04-02T08:10:48.441Z,77.70
2023-04-02T08:13:14.906Z,77.50
2023-04-02T08:15:41.345Z,77.70
2023-04-02T08:18:07.842Z,77.50
2023-04-02T08:20:34.374Z,77.50
2023-04-02T08:23:00.821Z,77.50
2023-04-02T08:25:27.211Z,77.00
2023-04-02T08:27:53.615Z,77.00
2023-04-02T08:30:20.123Z,77.00
2023-04-02T08:32:46.562Z,77.00
2023-04-02T08:35:13.041Z,77.00
2023-04-02T08:37:39.513Z,77.10
2023-04-02T08:40:05.900Z,76.80
2023-04-02T08:42:32.669Z,76.60
2023-04-02T08:44:59.114Z,76.60
2023-04-02T08:47:25.534Z,75.90
2023-04-02T08:49:51.944Z,76.30
2023-04-02T08:52:18.406Z,75.80
2023-04-02T08:54:44.845Z,75.20
2023-04-02T08:57:11.340Z,74.00
2023-04-02T08:59:37.810Z,73.40
2023-04-02T09:02:04.285Z,72.00
2023-04-02T09:04:30.828Z,71.00
2023-04-02T09:06:57.301Z,70.40
2023-04-02T09:09:23.789Z,71.00
2023-04-02T09:11:50.272Z,70.60
2023-04-02T09:14:16.680Z,70.30
2023-04-02T09:16:43.052Z,70.00
2023-04-02T09:19:09.470Z,68.80
2023-04-02T09:21:35.935Z,67.60
2023-04-02T09:24:03.959Z,66.90
2023-04-02T09:26:31.114Z,66.80
2023-04-02T09:28:57.558Z,66.00
2023-04-02T09:31:24.192Z,66.30
2023-04-02T09:33:50.671Z,65.90
2023-04-02T09:36:17.174Z,65.50
2023-04-02T09:38:43.608Z,65.00
2023-04-02T09:41:10.033Z,64.80
2023-04-02T09:43:36.445Z,64.50
2023-04-02T09:46:02.934Z,63.30
2023-04-02T09:48:29.313Z,63.40
2023-04-02T09:50:55.702Z,63.50
2023-04-02T09:53:23.542Z,64.00
2023-04-02T09:55:50.042Z,63.80
2023-04-02T09:58:16.503Z,63.10
2023-04-02T10:00:43.062Z,62.80
2023-04-02T10:03:09.620Z,62.20
2023-04-02T10:08:05.521Z,61.40
2023-04-02T10:10:32.038Z,60.50
2023-04-02T10:12:58.450Z,60.30
2023-04-02T10:15:24.842Z,60.20
2023-04-02T10:17:51.374Z,59.20
2023-04-02T10:20:17.845Z,59.00
2023-04-02T10:22:44.282Z,58.50
2023-04-02T10:25:10.725Z,58.40
2023-04-02T10:27:37.181Z,58.20
2023-04-02T10:30:03.887Z,58.10
2023-04-02T10:32:30.447Z,58.20
2023-04-02T10:34:56.864Z,57.80
2023-04-02T10:37:23.289Z,57.10
2023-04-02T10:39:49.747Z,57.00
2023-04-02T10:42:16.222Z,56.30
2023-04-02T10:44:42.636Z,57.00
2023-04-02T10:47:09.040Z,56.30
2023-04-02T10:49:35.467Z,56.00
2023-04-02T10:52:01.901Z,55.40
2023-04-02T10:54:28.316Z,54.90
2023-04-02T10:56:54.738Z,55.00
2023-04-02T10:59:21.208Z,54.70
2023-04-02T11:01:47.654Z,54.70
2023-04-02T11:04:14.344Z,53.20
2023-04-02T11:06:40.777Z,53.70
2023-04-02T11:09:07.241Z,53.00
2023-04-02T11:11:33.690Z,52.70
2023-04-02T11:14:00.164Z,53.40
2023-04-02T11:16:26.641Z,53.20
2023-04-02T11:18:53.073Z,54.00
2023-04-02T11:21:19.501Z,54.30
2023-04-02T11:23:45.948Z,54.20
2023-04-02T11:26:12.324Z,53.00
2023-04-02T11:28:38.696Z,52.40
2023-04-02T11:31:05.258Z,51.20
2023-04-02T11:33:38.069Z,51.50
2023-04-02T11:36:05.763Z,51.50
2023-04-02T11:38:32.348Z,51.00
2023-04-02T11:40:59.101Z,51.20
2023-04-02T11:43:25.543Z,49.90
2023-04-02T11:45:53.355Z,50.30
2023-04-02T11:48:20.071Z,50.50
2023-04-02T11:50:46.782Z,49.40
2023-04-02T11:53:13.310Z,49.50
2023-04-02T11:55:39.979Z,49.40
2023-04-02T11:58:06.504Z,49.50
2023-04-02T12:00:33.014Z,49.00
2023-04-02T12:02:59.779Z,48.30
2023-04-02T12:05:26.391Z,47.10
2023-04-02T12:07:52.905Z,47.40
2023-04-02T12:10:19.388Z,47.70
2023-04-02T12:12:45.800Z,48.00
2023-04-02T12:15:12.225Z,47.50
2023-04-02T12:17:38.653Z,47.10
2023-04-02T12:20:08.623Z,47.20
2023-04-02T12:22:35.034Z,46.50
2023-04-02T12:25:01.465Z,47.00
2023-04-02T12:27:28.109Z,46.30
2023-04-02T12:29:54.622Z,46.40
2023-04-02T12:32:21.064Z,46.40
2023-04-02T12:34:47.510Z,46.50
2023-04-02T12:37:13.883Z,45.80
2023-04-02T12:39:40.293Z,46.20
2023-04-02T12:42:06.673Z,46.80
2023-04-02T12:44:33.095Z,46.30
2023-04-02T12:46:59.535Z,45.00
2023-04-02T12:49:25.929Z,44.90
2023-04-02T12:51:52.381Z,45.10
2023-04-02T12:54:18.842Z,46.10
2023-04-02T12:56:45.270Z,46.00
2023-04-02T12:59:11.703Z,44.60
2023-04-02T13:01:38.174Z,44.00
2023-04-02T13:04:04.733Z,45.70
2023-04-02T13:06:31.266Z,44.70
2023-04-02T13:08:57.800Z,45.10
2023-04-02T13:11:24.269Z,45.30
2023-04-02T13:13:50.723Z,45.30
2023-04-02T13:16:17.348Z,45.20
2023-04-02T13:18:43.859Z,44.60
2023-04-02T13:21:10.316Z,44.30
2023-04-02T13:23:36.752Z,44.30
2023-04-02T13:26:03.210Z,45.00
2023-04-02T13:28:29.616Z,44.00
2023-04-02T13:30:56.074Z,43.90
2023-04-02T13:33:22.546Z,43.00
2023-04-02T13:35:49.007Z,43.10
2023-04-02T13:38:15.429Z,43.60
2023-04-02T13:40:41.862Z,43.70
2023-04-02T13:43:08.298Z,44.10
2023-04-02T13:45:34.717Z,43.60
2023-04-02T13:48:01.371Z,44.40
2023-04-02T13:50:28.193Z,44.40
2023-04-02T13:52:54.591Z,44.10
2023-04-02T13:55:21.023Z,43.40
2023-04-02T13:57:47.440Z,43.20
2023-04-02T14:00:13.919Z,42.70
2023-04-02T14:02:40.383Z,42.10
2023-04-02T14:05:06.831Z,43.00
2023-04-02T14:07:33.282Z,43.40
2023-04-02T14:09:59.753Z,43.10
2023-04-02T14:12:26.205Z,42.50
2023-04-02T14:14:52.642Z,42.20
2023-04-02T14:17:19.117Z,42.60
2023-04-02T14:19:45.585Z,42.50
2023-04-02T14:22:11.991Z,42.70
2023-04-02T14:24:38.425Z,42.20
2023-04-02T14:27:04.830Z,41.60
2023-04-02T14:29:31.211Z,42.30
2023-04-02T14:31:57.597Z,42.60
2023-04-02T14:34:24.028Z,42.40
2023-04-02T14:36:50.476Z,41.90
2023-04-02T14:39:16.862Z,41.70
2023-04-02T14:41:43.266Z,41.70
2023-04-02T14:44:09.663Z,42.20
2023-04-02T14:46:37.512Z,42.50
2023-04-02T14:49:04.205Z,42.30
2023-04-02T14:51:30.617Z,42.40
2023-04-02T14:53:56.995Z,42.00
2023-04-02T14:56:23.464Z,42.20
2023-04-02T14:58:49.888Z,42.00
2023-04-02T15:01:16.365Z,42.20
2023-04-02T15:03:42.838Z,43.00
2023-04-02T15:06:09.279Z,43.00
2023-04-02T15:08:35.732Z,43.20
2023-04-02T15:11:04.925Z,43.00
2023-04-02T15:13:32.493Z,43.60
2023-04-02T15:15:59.158Z,44.30
2023-04-02T15:18:25.649Z,44.70
2023-04-02T15:20:52.085Z,45.40
2023-04-02T15:23:18.510Z,45.60
2023-04-02T15:25:44.907Z,44.40
2023-04-02T15:28:11.374Z,44.60
2023-04-02T15:30:38.028Z,44.90
2023-04-02T15:33:04.721Z,44.90
2023-04-02T15:35:31.148Z,44.60
2023-04-02T15:37:57.650Z,45.20
2023-04-02T15:40:24.050Z,45.10
2023-04-02T15:42:50.485Z,44.90
2023-04-02T15:45:16.915Z,44.70
2023-04-02T15:47:43.387Z,45.00
2023-04-02T15:50:09.838Z,46.00
2023-04-02T15:52:36.278Z,45.90
2023-04-02T15:55:02.859Z,45.90
2023-04-02T15:57:29.339Z,45.60
2023-04-02T15:59:55.785Z,45.70
2023-04-02T16:02:22.162Z,45.70
2023-04-02T16:04:48.602Z,45.60
2023-04-02T16:07:15.024Z,45.90
2023-04-02T16:09:41.465Z,46.00
2023-04-02T16:12:07.902Z,45.90
2023-04-02T16:14:34.368Z,45.60
2023-04-02T16:17:03.791Z,45.50
2023-04-02T16:19:34.640Z,45.70
2023-04-02T16:22:01.083Z,45.30
2023-04-02T16:24:27.635Z,45.10
2023-04-02T16:26:54.159Z,45.30
2023-04-02T16:29:20.585Z,45.50
2023-04-02T16:31:46.975Z,45.50
2023-04-02T16:34:13.435Z,45.70
2023-04-02T16:36:39.910Z,45.40
2023-04-02T16:39:06.463Z,45.40
2023-04-02T16:41:32.905Z,44.80
2023-04-02T16:43:59.366Z,45.00
2023-04-02T16:46:38.172Z,45.70
2023-04-02T16:49:06.569Z,45.70
2023-04-02T16:51:33.038Z,45.60
2023-04-02T16:54:01.977Z,45.40
2023-04-02T16:56:29.126Z,46.00
2023-04-02T16:58:55.513Z,46.30
2023-04-02T17:01:21.991Z,46.70
2023-04-02T17:03:48.569Z,47.00
2023-04-02T17:06:15.010Z,46.60
2023-04-02T17:08:41.486Z,46.60
2023-04-02T17:11:07.965Z,47.10
2023-04-02T17:13:34.353Z,47.20
2023-04-02T17:16:00.800Z,47.60
2023-04-02T17:18:27.301Z,47.90
2023-04-02T17:20:53.744Z,47.90
2023-04-02T17:23:20.188Z,48.50
2023-04-02T17:25:46.645Z,48.70
2023-04-02T17:28:13.105Z,49.10
2023-04-02T17:30:39.539Z,49.30
2023-04-02T17:33:06.050Z,49.50
2023-04-02T17:35:32.822Z,49.90
2023-04-02T17:37:59.279Z,50.10
2023-04-02T17:40:25.689Z,50.30
2023-04-02T17:42:52.139Z,50.70
2023-04-02T17:45:18.562Z,51.10
2023-04-02T17:47:45.030Z,51.20
2023-04-02T17:50:11.464Z,51.20
2023-04-02T17:52:37.837Z,51.40
2023-04-02T17:55:04.277Z,51.60
2023-04-02T17:57:30.667Z,51.70
2023-04-02T17:59:57.152Z,51.70
2023-04-02T18:02:23.819Z,52.00
2023-04-02T18:04:50.299Z,52.20
2023-04-02T18:07:16.722Z,52.40
2023-04-02T18:09:43.210Z,52.60
2023-04-02T18:12:09.660Z,52.70
2023-04-02T18:14:36.075Z,52.80
2023-04-02T18:17:02.788Z,53.00
2023-04-02T18:19:31.223Z,53.30
2023-04-02T18:21:58.717Z,53.40
2023-04-02T18:24:25.170Z,53.50
2023-04-02T18:26:51.620Z,53.60
2023-04-02T18:29:18.008Z,53.80
2023-04-02T18:31:44.374Z,54.00
2023-04-02T18:34:10.798Z,54.00
2023-04-02T18:36:37.192Z,54.20
2023-04-02T18:39:03.794Z,54.30
2023-04-02T18:41:30.260Z,54.50
2023-04-02T18:43:57.512Z,54.70
2023-04-02T18:46:24.080Z,54.80
2023-04-02T18:48:50.525Z,54.90
2023-04-02T18:51:16.915Z,55.00
2023-04-02T18:53:43.374Z,55.10
2023-04-02T18:56:11.779Z,55.20
2023-04-02T18:58:38.737Z,55.40
2023-04-02T19:01:05.321Z,56.20
2023-04-02T19:03:31.815Z,55.80
2023-04-02T19:05:58.440Z,56.10
2023-04-02T19:08:24.829Z,56.30
2023-04-02T19:10:51.266Z,57.20
2023-04-02T19:13:17.705Z,56.80
2023-04-02T19:15:44.143Z,56.90
2023-04-02T19:18:10.631Z,57.10
2023-04-02T19:20:37.093Z,57.30
2023-04-02T19:23:03.871Z,57.30
2023-04-02T19:25:30.272Z,57.50
2023-04-02T19:27:56.710Z,57.60
2023-04-02T19:30:23.098Z,57.70
2023-04-02T19:32:49.600Z,57.80
2023-04-02T19:35:16.122Z,58.10
2023-04-02T19:37:42.601Z,58.00
2023-04-02T19:40:09.068Z,58.10
2023-04-02T19:42:35.549Z,58.30
2023-04-02T19:45:02.032Z,58.50
2023-04-02T19:47:28.612Z,58.60
2023-04-02T19:49:55.110Z,58.70
2023-04-02T19:52:21.540Z,58.80
2023-04-02T19:54:47.972Z,58.90
2023-04-02T19:57:14.437Z,59.10
2023-04-02T19:59:40.836Z,59.30
2023-04-02T20:02:07.278Z,59.60
2023-04-02T20:04:33.913Z,59.70
2023-04-02T20:07:00.453Z,59.90
2023-04-02T20:09:26.874Z,60.10
2023-04-02T20:11:53.304Z,60.30
2023-04-02T20:14:19.761Z,60.30
2023-04-02T20:16:46.256Z,60.40
2023-04-02T20:19:12.688Z,60.50
2023-04-02T20:21:39.193Z,60.60
2023-04-02T20:24:05.677Z,60.70
2023-04-02T20:26:32.104Z,60.80
2023-04-02T20:28:58.667Z,61.00
2023-04-02T20:31:25.141Z,61.00
2023-04-02T20:33:51.737Z,61.10
2023-04-02T20:36:18.272Z,61.30
2023-04-02T20:38:45.910Z,61.60
2023-04-02T20:41:12.376Z,61.90
2023-04-02T20:43:38.857Z,62.10
2023-04-02T20:46:05.656Z,62.40
2023-04-02T20:48:32.243Z,62.40
2023-04-02T20:50:58.692Z,62.30
2023-04-02T20:53:25.118Z,62.50
2023-04-02T20:55:51.563Z,62.30
2023-04-02T20:58:18.011Z,62.20
2023-04-02T21:00:44.423Z,62.10
2023-04-02T21:03:10.837Z,62.10
2023-04-02T21:05:37.347Z,62.10
2023-04-02T21:08:03.890Z,62.10
2023-04-02T21:10:30.363Z,62.40
2023-04-02T21:12:56.792Z,62.60
2023-04-02T21:15:23.189Z,62.70
2023-04-02T21:17:49.694Z,62.80
2023-04-02T21:20:16.227Z,63.00
2023-04-02T21:22:42.664Z,63.20
2023-04-02T21:25:09.083Z,63.30
2023-04-02T21:27:35.464Z,63.50
2023-04-02T21:30:01.922Z,63.60
2023-04-02T21:32:28.625Z,63.70
2023-04-02T21:34:55.118Z,63.60
2023-04-02T21:37:21.576Z,63.60
2023-04-02T21:39:48.046Z,63.60
2023-04-02T21:42:14.533Z,63.50
2023-04-02T21:44:41.004Z,63.60
2023-04-02T21:47:07.441Z,63.60
2023-04-02T21:49:33.940Z,63.80
2023-04-02T21:52:00.407Z,64.00
2023-04-02T21:54:26.888Z,64.10
2023-04-02T21:56:53.438Z,64.20
2023-04-02T21:59:19.889Z,64.30
2023-04-02T22:01:46.377Z,64.40
2023-04-02T22:04:12.986Z,64.60
2023-04-02T22:06:39.446Z,64.50
2023-04-02T22:09:05.845Z,64.40
2023-04-02T22:11:32.311Z,64.40
2023-04-02T22:13:58.860Z,64.50
2023-04-02T22:16:25.331Z,64.50
2023-04-02T22:18:51.765Z,64.40
2023-04-02T22:21:18.176Z,64.70
2023-04-02T22:23:44.615Z,64.80
2023-04-02T22:26:11.033Z,64.90
2023-04-02T22:28:37.505Z,65.10
2023-04-02T22:31:04.002Z,65.30
2023-04-02T22:33:30.535Z,65.50
2023-04-02T22:35:57.016Z,65.60
2023-04-02T22:38:23.522Z,65.60
2023-04-02T22:40:49.995Z,65.50
2023-04-02T22:43:16.439Z,65.60
2023-04-02T22:45:42.926Z,65.60
2023-04-02T22:48:09.421Z,65.80
2023-04-02T22:50:36.047Z,66.10
2023-04-02T22:53:02.862Z,66.30
2023-04-02T22:55:29.249Z,66.60
2023-04-02T22:57:55.658Z,66.70
2023-04-02T23:00:22.066Z,66.80
2023-04-02T23:02:48.554Z,66.70
2023-04-02T23:05:15.008Z,66.50
2023-04-02T23:07:41.504Z,66.50
2023-04-02T23:10:07.933Z,66.50
2023-04-02T23:12:34.354Z,66.60
2023-04-02T23:15:00.747Z,66.70
2023-04-02T23:17:27.198Z,66.60
2023-04-02T23:19:53.688Z,66.40
2023-04-02T23:22:20.148Z,66.30
2023-04-02T23:24:46.629Z,66.30
2023-04-02T23:27:13.093Z,66.40
2023-04-02T23:29:39.551Z,66.40
2023-04-02T23:32:06.059Z,66.40
2023-04-02T23:34:32.687Z,66.40
2023-04-02T23:36:59.256Z,66.40
2023-04-02T23:39:25.704Z,67.00
2023-04-02T23:41:52.158Z,66.50
2023-04-02T23:44:18.732Z,66.60
2023-04-02T23:46:45.232Z,66.60
2023-04-02T23:49:11.720Z,66.60
2023-04-02T23:51:38.093Z,66.70
2023-04-02T23:54:04.535Z,66.70
2023-04-02T23:56:31.000Z,66.80
2023-04-02T23:58:57.794Z,66.80
